createdAt,value
2023-01-30T00:01:46.409Z,4.47
2023-01-30T00:04:17.140Z,4.20
2023-01-30T00:06:45.188Z,4.07
2023-01-30T00:09:14.700Z,4.60
2023-01-30T00:11:43.696Z,3.90
2023-01-30T00:14:11.371Z,3.93
2023-01-30T00:16:39.096Z,4.73
2023-01-30T00:19:06.895Z,3.87
2023-01-30T00:21:34.571Z,3.60
2023-01-30T00:24:02.226Z,3.87
2023-01-30T00:26:29.986Z,4.00
2023-01-30T00:28:59.043Z,3.70
2023-01-30T00:31:26.788Z,3.77
2023-01-30T00:33:54.408Z,4.00
2023-01-30T00:36:22.389Z,3.77
2023-01-30T00:38:50.019Z,3.83
2023-01-30T00:41:18.883Z,3.70
2023-01-30T00:44:04.268Z,3.27
2023-01-30T00:46:52.518Z,3.80
2023-01-30T00:49:20.597Z,3.20
2023-01-30T00:51:48.617Z,3.27
2023-01-30T00:54:16.234Z,3.10
2023-01-30T00:56:43.871Z,3.80
2023-01-30T00:59:11.579Z,3.90
2023-01-30T01:01:40.731Z,3.80
2023-01-30T01:04:10.435Z,3.70
2023-01-30T01:06:38.136Z,3.37
2023-01-30T01:09:06.758Z,3.63
2023-01-30T01:11:34.563Z,3.30
2023-01-30T01:14:03.705Z,3.40
2023-01-30T01:16:32.798Z,3.67
2023-01-30T01:19:01.969Z,3.60
2023-01-30T01:21:29.615Z,3.50
2023-01-30T01:23:59.255Z,3.27
2023-01-30T01:26:27.662Z,2.90
2023-01-30T01:28:56.299Z,3.13
2023-01-30T01:31:25.630Z,3.10
2023-01-30T01:33:53.456Z,3.40
2023-01-30T01:36:52.249Z,3.50
2023-01-30T01:39:10.669Z,3.60
2023-01-30T01:41:37.471Z,3.30
2023-01-30T01:44:07.600Z,3.10
2023-01-30T01:46:38.681Z,3.30
2023-01-30T01:49:13.884Z,3.10
2023-01-30T01:51:50.878Z,2.97
2023-01-30T01:54:22.489Z,3.20
2023-01-30T01:56:51.315Z,3.20
2023-01-30T01:59:24.759Z,2.67
2023-01-30T02:01:57.495Z,3.03
2023-01-30T02:04:41.286Z,3.43
2023-01-30T02:07:10.700Z,3.37
2023-01-30T02:09:38.947Z,3.10
2023-01-30T02:12:07.189Z,3.20
2023-01-30T02:14:36.399Z,2.80
2023-01-30T02:17:04.188Z,3.03
2023-01-30T02:19:51.361Z,2.93
2023-01-30T02:22:40.308Z,3.50
2023-01-30T02:25:37.953Z,2.77
2023-01-30T02:28:24.519Z,3.13
2023-01-30T02:31:12.966Z,3.03
2023-01-30T02:33:46.796Z,3.03
2023-01-30T02:36:22.215Z,2.97
2023-01-30T02:38:59.994Z,2.77
2023-01-30T02:41:37.338Z,2.70
2023-01-30T02:44:07.088Z,2.77
2023-01-30T02:46:47.562Z,2.80
2023-01-30T02:49:21.891Z,3.17
2023-01-30T02:51:51.854Z,2.53
2023-01-30T02:54:19.489Z,2.63
2023-01-30T02:56:49.963Z,2.87
2023-01-30T02:59:22.827Z,3.20
2023-01-30T03:02:22.193Z,2.70
2023-01-30T03:05:03.344Z,3.07
2023-01-30T03:07:41.257Z,2.60
2023-01-30T03:10:16.553Z,2.77
2023-01-30T03:12:51.282Z,3.00
2023-01-30T03:15:26.811Z,3.00
2023-01-30T03:17:56.041Z,2.77
2023-01-30T03:20:23.803Z,3.23
2023-01-30T03:22:51.433Z,2.87
2023-01-30T03:25:21.850Z,3.00
2023-01-30T03:27:52.015Z,2.90
2023-01-30T03:30:20.220Z,3.10
2023-01-30T03:32:47.843Z,2.40
2023-01-30T03:35:18.005Z,2.43
2023-01-30T03:37:46.085Z,2.87
2023-01-30T03:40:16.039Z,2.50
2023-01-30T03:42:44.000Z,2.37
2023-01-30T03:45:12.699Z,2.77
2023-01-30T03:47:40.318Z,2.40
2023-01-30T03:50:08.560Z,2.40
2023-01-30T03:52:38.034Z,2.50
2023-01-30T03:55:06.178Z,3.30
2023-01-30T03:57:33.800Z,2.43
2023-01-30T04:00:01.458Z,2.87
2023-01-30T04:02:29.175Z,2.60
2023-01-30T04:04:56.871Z,2.77
2023-01-30T04:07:24.623Z,2.77
2023-01-30T04:09:53.942Z,2.33
2023-01-30T04:12:21.624Z,2.60
2023-01-30T04:14:49.405Z,2.60
2023-01-30T04:17:17.018Z,2.70
2023-01-30T04:19:44.885Z,2.50
2023-01-30T04:22:12.533Z,3.00
2023-01-30T04:24:40.181Z,2.33
2023-01-30T04:27:09.634Z,2.37
2023-01-30T04:29:37.324Z,2.80
2023-01-30T04:32:05.425Z,2.60
2023-01-30T04:34:33.073Z,2.40
2023-01-30T04:37:00.726Z,2.33
2023-01-30T04:39:28.366Z,2.70
2023-01-30T04:41:56.013Z,2.40
2023-01-30T04:44:24.967Z,2.20
2023-01-30T04:46:52.720Z,2.27
2023-01-30T04:49:20.392Z,2.60
2023-01-30T04:51:48.084Z,2.70
2023-01-30T04:54:15.729Z,2.30
2023-01-30T04:56:44.523Z,2.37
2023-01-30T04:59:12.384Z,2.63
2023-01-30T05:01:41.631Z,2.60
2023-01-30T05:04:09.968Z,2.40
2023-01-30T05:06:38.276Z,2.70
2023-01-30T05:09:06.295Z,2.77
2023-01-30T05:11:34.420Z,2.37
2023-01-30T05:14:02.223Z,2.73
2023-01-30T05:16:30.393Z,2.40
2023-01-30T05:18:59.794Z,2.80
2023-01-30T05:21:28.856Z,2.17
2023-01-30T05:23:57.471Z,2.40
2023-01-30T05:26:25.653Z,2.20
2023-01-30T05:28:54.073Z,2.23
2023-01-30T05:31:22.201Z,2.50
2023-01-30T05:33:52.314Z,2.37
2023-01-30T05:36:22.930Z,2.80
2023-01-30T05:38:50.648Z,2.10
2023-01-30T05:41:18.920Z,2.13
2023-01-30T05:43:50.561Z,2.40
2023-01-30T05:46:18.464Z,2.87
2023-01-30T05:48:46.175Z,2.50
2023-01-30T05:51:18.660Z,2.40
2023-01-30T05:53:48.411Z,2.30
2023-01-30T05:56:16.617Z,2.40
2023-01-30T05:58:44.346Z,2.47
2023-01-30T06:01:13.971Z,2.13
2023-01-30T06:03:41.757Z,2.00
2023-01-30T06:06:11.175Z,2.30
2023-01-30T06:08:38.802Z,2.20
2023-01-30T06:11:10.139Z,2.57
2023-01-30T06:13:38.612Z,2.10
2023-01-30T06:16:07.111Z,2.40
2023-01-30T06:18:34.981Z,2.17
2023-01-30T06:21:02.979Z,2.43
2023-01-30T06:23:30.667Z,2.70
2023-01-30T06:25:58.767Z,2.40
2023-01-30T06:28:28.068Z,2.33
2023-01-30T06:30:56.123Z,2.30
2023-01-30T06:33:23.817Z,2.33
2023-01-30T06:35:52.922Z,2.60
2023-01-30T06:38:21.177Z,2.10
2023-01-30T06:40:51.011Z,2.40
2023-01-30T06:43:19.311Z,2.23
2023-01-30T06:45:48.534Z,2.40
2023-01-30T06:48:16.283Z,2.47
2023-01-30T06:50:43.955Z,2.10
2023-01-30T06:53:12.018Z,2.40
2023-01-30T06:55:39.702Z,2.10
2023-01-30T06:58:08.485Z,2.00
2023-01-30T07:00:37.122Z,2.20
2023-01-30T07:03:06.422Z,2.17
2023-01-30T07:05:34.036Z,2.60
2023-01-30T07:08:01.641Z,2.43
2023-01-30T07:10:32.003Z,2.10
2023-01-30T07:12:59.964Z,2.30
2023-01-30T07:15:27.852Z,1.87
2023-01-30T07:17:55.509Z,2.20
2023-01-30T07:20:24.606Z,2.30
2023-01-30T07:22:52.604Z,2.23
2023-01-30T07:25:20.856Z,2.30
2023-01-30T07:27:52.556Z,2.10
2023-01-30T07:30:20.921Z,2.13
2023-01-30T07:32:51.133Z,2.40
2023-01-30T07:35:19.305Z,2.40
2023-01-30T07:37:49.242Z,2.43
2023-01-30T07:40:17.604Z,2.20
2023-01-30T07:42:45.737Z,2.40
2023-01-30T07:45:13.447Z,2.60
2023-01-30T07:47:41.045Z,2.30
2023-01-30T07:50:09.731Z,2.30
2023-01-30T07:52:37.382Z,2.13
2023-01-30T07:55:07.339Z,2.30
2023-01-30T07:57:35.001Z,2.20
2023-01-30T08:00:02.943Z,2.23
2023-01-30T08:02:30.546Z,1.97
2023-01-30T08:04:58.214Z,2.10
2023-01-30T08:07:25.901Z,2.70
2023-01-30T08:09:53.532Z,2.03
2023-01-30T08:12:22.590Z,2.40
2023-01-30T08:14:50.372Z,2.20
2023-01-30T08:17:18.010Z,2.40
2023-01-30T08:19:45.639Z,2.00
2023-01-30T08:22:13.608Z,2.13
2023-01-30T08:24:41.244Z,2.27
2023-01-30T08:27:09.205Z,2.03
2023-01-30T08:29:38.203Z,2.30
2023-01-30T08:32:06.334Z,2.00
2023-01-30T08:34:34.375Z,2.33
2023-01-30T08:37:01.984Z,2.50
2023-01-30T08:39:29.639Z,2.30
2023-01-30T08:41:57.412Z,2.00
2023-01-30T08:44:25.039Z,2.30
2023-01-30T08:46:54.006Z,2.00
2023-01-30T08:49:21.661Z,2.30
2023-01-30T08:51:49.290Z,2.13
2023-01-30T08:54:16.962Z,2.30
2023-01-30T08:56:44.628Z,2.50
2023-01-30T08:59:12.264Z,2.10
2023-01-30T09:01:39.974Z,2.20
2023-01-30T09:04:09.015Z,2.40
2023-01-30T09:06:36.757Z,2.23
2023-01-30T09:09:05.037Z,2.10
2023-01-30T09:11:32.724Z,1.90
2023-01-30T09:14:00.336Z,2.40
2023-01-30T09:16:28.057Z,2.03
2023-01-30T09:18:55.767Z,2.20
2023-01-30T09:21:25.202Z,2.27
2023-01-30T09:23:52.823Z,2.13
2023-01-30T09:26:20.509Z,2.10
2023-01-30T09:28:48.160Z,2.43
2023-01-30T09:31:15.906Z,2.10
2023-01-30T09:33:44.056Z,2.10
2023-01-30T09:36:11.661Z,2.20
2023-01-30T09:38:40.661Z,2.37
2023-01-30T09:41:42.662Z,2.00
2023-01-30T09:44:41.703Z,2.00
2023-01-30T09:47:13.215Z,2.10
2023-01-30T09:49:53.364Z,2.40
2023-01-30T09:52:31.895Z,2.03
2023-01-30T09:55:04.316Z,2.10
2023-01-30T09:57:31.971Z,2.00
2023-01-30T10:00:05.413Z,2.47
2023-01-30T10:02:42.339Z,2.23
2023-01-30T10:05:10.396Z,2.30
2023-01-30T10:07:52.209Z,2.10
2023-01-30T10:10:41.713Z,2.23
2023-01-30T10:13:24.704Z,2.10
2023-01-30T10:15:56.073Z,2.10
2023-01-30T10:18:37.948Z,2.30
2023-01-30T10:21:16.905Z,2.20
2023-01-30T10:24:02.900Z,1.77
2023-01-30T10:26:32.300Z,1.90
2023-01-30T10:29:07.617Z,2.10
2023-01-30T10:31:41.369Z,2.23
2023-01-30T10:34:15.673Z,2.13
2023-01-30T10:36:50.566Z,2.17
2023-01-30T10:39:32.486Z,2.50
2023-01-30T10:42:10.948Z,1.80
2023-01-30T10:44:40.961Z,1.80
2023-01-30T10:47:38.047Z,2.33
2023-01-30T10:50:18.018Z,2.10
2023-01-30T10:52:54.517Z,2.13
2023-01-30T10:55:37.126Z,2.30
2023-01-30T10:58:16.095Z,2.10
2023-01-30T11:00:48.812Z,2.03
2023-01-30T11:03:27.510Z,2.10
2023-01-30T11:06:01.019Z,2.17
2023-01-30T11:08:31.587Z,1.80
2023-01-30T11:10:59.720Z,2.20
2023-01-30T11:13:31.687Z,2.17
2023-01-30T11:16:01.615Z,2.07
2023-01-30T11:21:27.024Z,1.77
2023-01-30T11:24:06.851Z,2.00
2023-01-30T11:26:46.658Z,2.03
2023-01-30T11:29:28.889Z,2.27
2023-01-30T11:31:57.857Z,1.90
2023-01-30T11:34:26.004Z,2.23
2023-01-30T11:36:53.908Z,2.03
2023-01-30T11:39:24.706Z,2.00
2023-01-30T11:42:01.928Z,2.07
2023-01-30T11:44:33.253Z,1.70
2023-01-30T11:47:02.573Z,1.73
2023-01-30T11:49:48.155Z,2.00
2023-01-30T11:52:27.575Z,1.90
2023-01-30T11:55:01.036Z,2.10
2023-01-30T11:57:28.848Z,2.40
2023-01-30T12:00:00.118Z,2.00
2023-01-30T12:02:32.663Z,1.70
2023-01-30T12:05:02.489Z,1.80
2023-01-30T12:07:32.725Z,1.80
2023-01-30T12:10:01.027Z,1.97
2023-01-30T12:12:32.202Z,2.07
2023-01-30T12:15:11.716Z,1.87
2023-01-30T12:17:48.128Z,2.07
2023-01-30T12:20:22.077Z,1.80
2023-01-30T12:23:03.677Z,1.77
2023-01-30T12:25:39.624Z,1.80
2023-01-30T12:28:15.472Z,1.53
2023-01-30T12:30:51.591Z,1.53
2023-01-30T12:33:19.678Z,1.80
2023-01-30T12:36:06.424Z,1.60
2023-01-30T12:38:51.437Z,2.00
2023-01-30T12:41:34.768Z,2.07
2023-01-30T12:44:18.003Z,2.30
2023-01-30T12:47:01.019Z,1.70
2023-01-30T12:49:57.154Z,1.53
2023-01-30T12:52:43.292Z,1.60
2023-01-30T12:55:22.331Z,1.90
2023-01-30T12:58:00.301Z,2.00
2023-01-30T13:00:43.448Z,1.80
2023-01-30T13:03:24.712Z,1.73
2023-01-30T13:05:57.967Z,1.70
2023-01-30T13:08:55.498Z,1.80
2023-01-30T13:11:37.079Z,1.80
2023-01-30T13:14:13.472Z,1.87
2023-01-30T13:17:01.542Z,1.70
2023-01-30T13:19:41.846Z,1.70
2023-01-30T13:22:17.443Z,1.73
2023-01-30T13:24:55.363Z,1.60
2023-01-30T13:27:24.444Z,1.60
2023-01-30T13:29:53.758Z,1.90
2023-01-30T13:32:34.176Z,2.00
2023-01-30T13:35:07.535Z,1.33
2023-01-30T13:37:36.055Z,1.50
2023-01-30T13:40:14.360Z,1.67
2023-01-30T13:42:46.471Z,1.77
2023-01-30T13:45:17.951Z,1.50
2023-01-30T13:47:53.640Z,1.57
2023-01-30T13:50:37.464Z,1.60
2023-01-30T13:53:12.138Z,1.90
2023-01-30T13:55:48.489Z,1.80
2023-01-30T13:58:35.704Z,1.70
2023-01-30T14:01:03.764Z,1.50
2023-01-30T14:03:32.901Z,1.73
2023-01-30T14:06:04.974Z,1.63
2023-01-30T14:08:39.498Z,1.50
2023-01-30T14:11:29.071Z,1.37
2023-01-30T14:14:01.598Z,1.40
2023-01-30T14:16:42.066Z,1.57
2023-01-30T14:19:31.795Z,1.87
2023-01-30T14:22:02.915Z,1.40
2023-01-30T14:24:31.633Z,1.90
2023-01-30T14:27:25.395Z,1.43
2023-01-30T14:29:57.298Z,1.60
2023-01-30T14:33:00.921Z,1.60
2023-01-30T14:35:29.439Z,1.50
2023-01-30T14:38:12.772Z,1.83
2023-01-30T14:40:42.617Z,1.50
2023-01-30T14:43:36.802Z,1.50
2023-01-30T14:46:08.555Z,1.60
2023-01-30T14:48:44.524Z,1.60
2023-01-30T14:51:23.542Z,1.50
2023-01-30T14:54:01.568Z,1.40
2023-01-30T14:56:52.022Z,1.90
2023-01-30T14:59:24.984Z,1.80
2023-01-30T15:01:58.573Z,1.43
2023-01-30T15:04:29.974Z,1.30
2023-01-30T15:07:00.016Z,1.40
2023-01-30T15:09:31.345Z,1.50
2023-01-30T15:12:23.307Z,1.80
2023-01-30T15:15:03.845Z,1.60
2023-01-30T15:17:41.115Z,1.50
2023-01-30T15:20:27.459Z,1.50
2023-01-30T15:23:14.432Z,1.40
2023-01-30T15:26:01.314Z,1.50
2023-01-30T15:28:39.619Z,1.33
2023-01-30T15:31:19.613Z,1.33
2023-01-30T15:33:48.710Z,1.70
2023-01-30T15:36:28.054Z,1.57
2023-01-30T15:39:03.834Z,1.30
2023-01-30T15:41:39.877Z,1.43
2023-01-30T15:44:48.526Z,1.50
2023-01-30T15:47:30.045Z,1.30
2023-01-30T15:50:00.905Z,1.47
2023-01-30T15:52:38.165Z,1.20
2023-01-30T15:55:07.779Z,1.50
2023-01-30T15:57:39.600Z,1.40
2023-01-30T16:00:11.576Z,1.40
2023-01-30T16:02:39.344Z,1.50
2023-01-30T16:05:15.437Z,1.30
2023-01-30T16:07:44.181Z,1.30
2023-01-30T16:10:15.070Z,1.30
2023-01-30T16:12:44.824Z,1.40
2023-01-30T16:15:19.814Z,1.20
2023-01-30T16:17:58.075Z,1.20
2023-01-30T16:20:25.946Z,1.40
2023-01-30T16:22:53.739Z,1.43
2023-01-30T16:25:25.522Z,1.30
2023-01-30T16:27:54.623Z,1.33
2023-01-30T16:30:25.967Z,1.70
2023-01-30T16:32:55.985Z,1.97
2023-01-30T16:35:34.068Z,1.80
2023-01-30T16:38:05.004Z,1.97
2023-01-30T16:40:45.142Z,1.73
2023-01-30T16:43:23.664Z,1.77
2023-01-30T16:46:24.693Z,1.87
2023-01-30T16:48:52.429Z,2.23
2023-01-30T16:51:24.005Z,1.63
2023-01-30T16:53:56.703Z,2.27
2023-01-30T16:56:24.719Z,2.20
2023-01-30T16:58:56.980Z,1.47
2023-01-30T17:01:36.879Z,2.13
2023-01-30T17:04:07.131Z,1.90
2023-01-30T17:06:39.632Z,1.73
2023-01-30T17:09:29.133Z,1.80
2023-01-30T17:11:56.749Z,1.80
2023-01-30T17:14:27.097Z,1.73
2023-01-30T17:17:02.627Z,2.13
2023-01-30T17:19:30.743Z,1.80
2023-01-30T17:22:00.245Z,2.30
2023-01-30T17:24:28.928Z,2.17
2023-01-30T17:27:00.329Z,2.00
2023-01-30T17:29:42.568Z,2.00
2023-01-30T17:32:12.513Z,1.97
2023-01-30T17:34:41.289Z,2.03
2023-01-30T17:37:15.534Z,2.03
2023-01-30T17:39:43.278Z,2.40
2023-01-30T17:42:11.177Z,1.80
2023-01-30T17:44:40.590Z,2.30
2023-01-30T17:47:10.259Z,2.00
2023-01-30T17:49:37.904Z,2.17
2023-01-30T17:52:05.894Z,2.30
2023-01-30T17:54:33.650Z,2.30
2023-01-30T17:57:03.178Z,2.57
2023-01-30T17:59:31.237Z,2.10
2023-01-30T18:02:00.782Z,2.13
2023-01-30T18:04:28.551Z,2.33
2023-01-30T18:07:02.118Z,2.40
2023-01-30T18:09:29.981Z,1.90
2023-01-30T18:11:57.658Z,2.10
2023-01-30T18:14:25.424Z,2.33
2023-01-30T18:16:53.286Z,2.27
2023-01-30T18:19:23.982Z,2.63
2023-01-30T18:21:51.878Z,2.60
2023-01-30T18:24:20.347Z,2.10
2023-01-30T18:26:48.209Z,2.33
2023-01-30T18:29:16.432Z,2.40
2023-01-30T18:31:44.161Z,2.33
2023-01-30T18:34:12.461Z,1.90
2023-01-30T18:36:41.578Z,2.30
2023-01-30T18:39:09.306Z,2.20
2023-01-30T18:41:37.013Z,2.00
2023-01-30T18:44:08.330Z,2.10
2023-01-30T18:46:36.023Z,1.80
2023-01-30T18:49:03.794Z,2.00
2023-01-30T18:51:34.151Z,2.20
2023-01-30T18:54:03.397Z,2.07
2023-01-30T18:56:33.123Z,2.20
2023-01-30T18:59:04.109Z,1.60
2023-01-30T19:01:35.575Z,2.07
2023-01-30T19:04:05.915Z,1.87
2023-01-30T19:06:36.233Z,1.83
2023-01-30T19:09:06.149Z,2.30
2023-01-30T19:11:51.819Z,1.80
2023-01-30T19:14:19.807Z,2.07
2023-01-30T19:16:47.529Z,2.10
2023-01-30T19:19:15.163Z,2.00
2023-01-30T19:21:42.820Z,1.90
2023-01-30T19:24:15.278Z,1.80
2023-01-30T19:26:43.476Z,1.83
2023-01-30T19:29:11.643Z,1.63
2023-01-30T19:31:39.468Z,2.07
2023-01-30T19:34:07.498Z,2.13
2023-01-30T19:36:36.983Z,1.63
2023-01-30T19:39:06.129Z,1.50
2023-01-30T19:41:37.403Z,1.90
2023-01-30T19:44:06.797Z,2.23
2023-01-30T19:46:34.871Z,1.80
2023-01-30T19:49:03.400Z,1.80
2023-01-30T19:51:32.786Z,1.80
2023-01-30T19:54:02.229Z,1.43
2023-01-30T19:56:30.530Z,1.87
2023-01-30T19:59:01.132Z,1.67
2023-01-30T20:01:32.750Z,1.63
2023-01-30T20:04:02.375Z,1.80
2023-01-30T20:06:31.996Z,1.77
2023-01-30T20:09:01.298Z,1.63
2023-01-30T20:11:29.962Z,1.70
2023-01-30T20:14:01.263Z,1.60
2023-01-30T20:16:31.271Z,1.60
2023-01-30T20:19:00.434Z,1.87
2023-01-30T20:21:29.224Z,1.80
2023-01-30T20:23:57.503Z,1.80
2023-01-30T20:26:27.102Z,1.47
2023-01-30T20:28:55.520Z,1.70
2023-01-30T20:31:26.852Z,1.87
2023-01-30T20:33:57.407Z,2.10
2023-01-30T20:36:27.129Z,1.67
2023-01-30T20:38:56.521Z,1.43
2023-01-30T20:41:25.847Z,1.57
2023-01-30T20:43:57.512Z,1.60
2023-01-30T20:46:35.924Z,1.60
2023-01-30T20:49:04.371Z,1.70
2023-01-30T20:51:35.032Z,1.70
2023-01-30T20:54:05.978Z,1.57
2023-01-30T20:56:37.501Z,1.70
2023-01-30T20:59:07.638Z,1.97
2023-01-30T21:01:37.514Z,1.77
2023-01-30T21:04:07.614Z,1.60
2023-01-30T21:06:42.415Z,1.77
2023-01-30T21:09:14.937Z,1.70
2023-01-30T21:11:43.691Z,1.50
2023-01-30T21:14:12.129Z,1.60
2023-01-30T21:16:42.149Z,1.37
2023-01-30T21:19:14.426Z,1.53
2023-01-30T21:21:59.092Z,1.80
2023-01-30T21:24:48.592Z,1.47
2023-01-30T21:27:41.911Z,1.80
2023-01-30T21:30:29.259Z,1.90
2023-01-30T21:33:06.459Z,1.57
2023-01-30T21:35:42.049Z,1.70
2023-01-30T21:38:39.158Z,1.50
2023-01-30T21:41:37.840Z,1.73
2023-01-30T21:44:23.116Z,1.20
2023-01-30T21:47:20.003Z,1.40
2023-01-30T21:50:06.672Z,1.33
2023-01-30T21:52:46.587Z,1.40
2023-01-30T21:55:18.722Z,1.43
2023-01-30T21:57:50.920Z,1.40
2023-01-30T22:00:20.562Z,1.60
2023-01-30T22:02:53.218Z,1.40
2023-01-30T22:05:23.681Z,1.47
2023-01-30T22:07:52.975Z,1.10
2023-01-30T22:10:24.482Z,1.43
2023-01-30T22:12:55.813Z,1.40
2023-01-30T22:15:36.303Z,1.23
2023-01-30T22:18:14.205Z,1.47
2023-01-30T22:20:52.715Z,1.67
2023-01-30T22:23:38.881Z,1.50
2023-01-30T22:26:52.704Z,1.13
2023-01-30T22:30:04.516Z,1.33
2023-01-30T22:33:17.575Z,1.30
2023-01-30T22:36:48.227Z,1.67
2023-01-30T22:40:03.231Z,1.07
2023-01-30T22:46:57.803Z,1.30
2023-01-30T22:50:01.937Z,1.10
2023-01-30T22:53:23.887Z,1.27
2023-01-30T22:56:43.352Z,1.27
2023-01-30T23:00:00.992Z,1.10
2023-01-30T23:06:25.651Z,1.30
2023-01-30T23:09:15.870Z,1.37
2023-01-30T23:13:05.462Z,1.10
2023-01-30T23:16:06.985Z,1.20
2023-01-30T23:19:22.063Z,1.30
2023-01-30T23:22:19.338Z,1.50
2023-01-30T23:25:50.443Z,1.17
2023-01-30T23:29:01.588Z,1.10
2023-01-30T23:32:08.238Z,1.20
2023-01-30T23:35:50.350Z,1.40
2023-01-30T23:39:05.824Z,1.27
2023-01-30T23:42:29.150Z,1.37
2023-01-30T23:45:14.071Z,1.00
2023-01-30T23:47:41.736Z,1.30
2023-01-30T23:50:11.266Z,1.57
2023-01-30T23:52:39.850Z,1.30
2023-01-30T23:55:08.670Z,1.47
2023-01-30T23:57:37.801Z,0.93
